Xavier Cenac — WDI6829 — position and weather

sailwx.info

Track history (hours):
 
Tides and Currents Weather Stations Pressure Air Temp Water Temp Dewpoint Dewpoint Depression Visibility Wind Speed Wind Dir Waves Ship Positions

Xavier Cenac

Owner: Cenac Marine Services LLC, Houma, LA. More information available from US FCC via Universal Licensing System and Coast Guard Vessel Documentation Center.

Last reported at 2017-Nov-20 00:30 UTC. Time now 2017-Nov-21 11:39 UTC.
Position N 29°47' W 092°09'.

Length 23 m; draft 9.6 m.

Type: Tug. MMSI: 367722660.

Date/timePositionNaut miles runAvg speedWind from/ knotsBaromVisibWave heightAir tempDewpointWater temp
2017-Nov-20 00:30N 29°47' W 092°09'2 4.6
2017-Nov-20 00:00N 29°47' W 092°12'2 4.8
2017-Nov-19 23:30N 29°48' W 092°14'1 1.1
2017-Nov-19 22:59N 29°48' W 092°15'0 0.0
2017-Nov-19 22:29N 29°48' W 092°15'0 0.2
2017-Nov-19 21:59N 29°48' W 092°15'1 3.1
2017-Nov-19 21:31N 29°49' W 092°17'3 5.0
2017-Nov-19 20:59N 29°50' W 092°19'39 5.0
2017-Nov-19 13:06N 29°56' W 093°04'1 4.2
2017-Nov-19 12:55N 29°56' W 093°05'2 4.7
2017-Nov-19 12:30N 29°56' W 093°07'2 4.7
2017-Nov-19 12:00N 29°56' W 093°10'2 3.8
2017-Nov-19 11:30N 29°58' W 093°11'2 3.3
2017-Nov-19 11:00N 29°59' W 093°12'2 3.5
2017-Nov-19 10:31N 30°00' W 093°14'2 3.4
2017-Nov-19 10:00N 30°02' W 093°15'2 3.2
2017-Nov-19 09:30N 30°03' W 093°16'2 4.4
2017-Nov-19 09:00N 30°05' W 093°17'1 1.2
2017-Nov-19 08:28N 30°05' W 093°18'1 1.9
2017-Nov-19 08:00N 30°06' W 093°18'0 0.3
2017-Nov-19 07:30N 30°06' W 093°19'0 0.0
2017-Nov-19 07:00N 30°06' W 093°19'0 0.0
2017-Nov-19 06:30N 30°06' W 093°19'0 0.0
2017-Nov-19 06:00N 30°06' W 093°19'0 0.0
2017-Nov-19 05:30N 30°06' W 093°19'0 0.0
2017-Nov-19 05:00N 30°06' W 093°19'0 0.0
2017-Nov-19 04:30N 30°06' W 093°19'0 0.0
2017-Nov-19 04:00N 30°06' W 093°19'0 0.0
2017-Nov-19 03:30N 30°06' W 093°19'0 0.0
2017-Nov-19 03:00N 30°06' W 093°19'0 0.0
2017-Nov-19 02:30N 30°06' W 093°19'0 0.0
2017-Nov-19 02:00N 30°06' W 093°19'0 0.0
2017-Nov-19 01:30N 30°06' W 093°19'0 0.0
2017-Nov-19 01:00N 30°06' W 093°19'0 0.0
2017-Nov-19 00:30N 30°06' W 093°19'0 0.1
2017-Nov-19 00:00N 30°06' W 093°19'0 0.0
2017-Nov-18 23:30N 30°06' W 093°19'1 2.2
2017-Nov-18 23:00N 30°05' W 093°20'2 4.3
2017-Nov-18 22:30N 30°04' W 093°21'2 4.3
2017-Nov-18 22:00N 30°04' W 093°24'3 5.8
2017-Nov-18 21:30N 30°04' W 093°27'3 5.9
2017-Nov-18 21:00N 30°04' W 093°30'11 0.3
2017-Nov-17 04:11N 30°03' W 093°43'1 6.0
2017-Nov-17 04:00N 30°04' W 093°42'3 7.0
2017-Nov-17 03:30N 30°04' W 093°38'4 7.3
2017-Nov-17 03:00N 30°04' W 093°33'4 7.2
2017-Nov-17 02:31N 30°04' W 093°29'4 7.3
2017-Nov-17 02:00N 30°04' W 093°25'3 6.4
2017-Nov-17 01:30N 30°04' W 093°21'3 6.6
2017-Nov-17 01:00N 30°06' W 093°19'2 3.0
2017-Nov-17 00:29N 30°05' W 093°17'1 1.9
2017-Nov-17 00:00N 30°05' W 093°17'2 4.0
2017-Nov-16 23:30N 30°03' W 093°16'3 6.1
2017-Nov-16 23:00N 30°00' W 093°14'3 6.6
2017-Nov-16 22:30N 29°58' W 093°11'4 6.0
2017-Nov-16 21:53N 29°56' W 093°07'40 5.6
2017-Nov-16 14:45N 29°51' W 092°22'2 6.5
2017-Nov-16 14:30N 29°51' W 092°20'3 5.7
2017-Nov-16 14:00N 29°49' W 092°17'3 6.9
2017-Nov-16 13:30N 29°48' W 092°14'1 2.3
2017-Nov-16 12:58N 29°47' W 092°12'0 0.8
2017-Nov-16 12:30N 29°47' W 092°12'1 2.0
2017-Nov-16 11:58N 29°47' W 092°11'0 0.0
2017-Nov-16 11:28N 29°47' W 092°11'0 0.0
2017-Nov-16 10:58N 29°47' W 092°11'0 0.0
2017-Nov-16 10:28N 29°47' W 092°11'0 0.0
2017-Nov-16 09:58N 29°47' W 092°11'0 0.0
2017-Nov-16 09:28N 29°47' W 092°11'0 0.0
2017-Nov-16 08:58N 29°47' W 092°11'0 0.0
2017-Nov-16 08:28N 29°47' W 092°11'1 3.2
2017-Nov-16 08:00N 29°47' W 092°09'2 4.1
2017-Nov-16 07:30N 29°48' W 092°07'3 5.2
2017-Nov-16 06:56N 29°49' W 092°04'0 0.2
2017-Nov-16 06:30N 29°49' W 092°04'0 0.6
2017-Nov-16 06:00N 29°48' W 092°04'3 5.4
2017-Nov-16 05:30N 29°49' W 092°01'3 6.8
2017-Nov-16 05:00N 29°50' W 091°57'56 5.6
2017-Nov-15 19:05N 29°34' W 090°56'1 7.5
2017-Nov-15 18:56N 29°33' W 090°55'3 7.1
2017-Nov-15 18:29N 29°32' W 090°51'3 7.3
2017-Nov-15 18:01N 29°32' W 090°47'3 5.9
2017-Nov-15 17:31N 29°34' W 090°44'1 2.7
2017-Nov-15 17:00N 29°34' W 090°43'0 0.0
2017-Nov-15 16:28N 29°34' W 090°43'0 1.0
2017-Nov-15 15:59N 29°34' W 090°43'0 0.0
2017-Nov-15 15:29N 29°34' W 090°43'0 0.0
2017-Nov-15 14:59N 29°34' W 090°43'0 0.0
2017-Nov-15 14:29N 29°34' W 090°43'0 0.0
2017-Nov-15 13:59N 29°34' W 090°43'0 0.0
2017-Nov-15 13:29N 29°34' W 090°43'0 0.0
2017-Nov-15 12:59N 29°34' W 090°43'0 0.0
2017-Nov-15 12:29N 29°34' W 090°43'0 0.0
2017-Nov-15 11:59N 29°34' W 090°43'0 0.0
2017-Nov-15 11:29N 29°34' W 090°43'0 0.0
2017-Nov-15 10:59N 29°34' W 090°43'0 0.0
2017-Nov-15 10:29N 29°34' W 090°43'0 0.0
2017-Nov-15 09:59N 29°34' W 090°43'0 0.0
2017-Nov-15 09:29N 29°34' W 090°43'0 0.0
2017-Nov-15 08:59N 29°34' W 090°43'0 0.0
2017-Nov-15 08:29N 29°34' W 090°43'0 0.0
2017-Nov-15 07:59N 29°34' W 090°43'0 0.0
2017-Nov-15 07:29N 29°34' W 090°43'0 0.0
2017-Nov-15 06:59N 29°34' W 090°43'0 0.0
2017-Nov-15 06:29N 29°34' W 090°43'0 0.0
2017-Nov-15 05:59N 29°34' W 090°43'0 0.0
2017-Nov-15 05:29N 29°34' W 090°43'0 0.0
2017-Nov-15 04:59N 29°34' W 090°43'0 0.0
2017-Nov-15 04:29N 29°34' W 090°43'0 0.0
2017-Nov-15 03:59N 29°34' W 090°43'0 0.0
2017-Nov-15 03:29N 29°34' W 090°43'0 0.0
2017-Nov-15 02:59N 29°34' W 090°43'0 0.0
2017-Nov-15 02:29N 29°34' W 090°43'0 0.0
2017-Nov-15 01:59N 29°34' W 090°43'0 0.0
2017-Nov-15 01:29N 29°34' W 090°43'0 0.0
2017-Nov-15 00:59N 29°34' W 090°43'0 0.0
2017-Nov-15 00:29N 29°34' W 090°43'0 0.0
2017-Nov-14 23:59N 29°34' W 090°43'0 0.0
2017-Nov-14 23:29N 29°34' W 090°43'0 0.0
2017-Nov-14 22:59N 29°34' W 090°43'0 0.0
2017-Nov-14 22:29N 29°34' W 090°43'0 0.0
2017-Nov-14 21:59N 29°34' W 090°43'0 0.0
2017-Nov-14 21:29N 29°34' W 090°43'0 0.0
2017-Nov-14 20:59N 29°34' W 090°43'0 0.0
2017-Nov-14 20:29N 29°34' W 090°43'0 0.0
2017-Nov-14 19:59N 29°34' W 090°43'0 0.0
2017-Nov-14 19:29N 29°34' W 090°43'0 0.0
2017-Nov-14 18:59N 29°34' W 090°43'0 0.0
2017-Nov-14 18:29N 29°34' W 090°43'0 0.0
2017-Nov-14 17:59N 29°34' W 090°43'0 0.0
2017-Nov-14 17:29N 29°34' W 090°43'0 0.0
2017-Nov-14 16:59N 29°34' W 090°43'0 0.0
2017-Nov-14 16:29N 29°34' W 090°43'0 0.0
2017-Nov-14 15:59N 29°34' W 090°43'0 0.0
2017-Nov-14 15:29N 29°34' W 090°43'0 0.0
2017-Nov-14 14:59N 29°34' W 090°43'0 0.0
2017-Nov-14 14:29N 29°34' W 090°43'0 0.0
2017-Nov-14 13:59N 29°34' W 090°43'0 0.0
2017-Nov-14 13:29N 29°34' W 090°43'0 0.0
2017-Nov-14 12:59N 29°34' W 090°43'0 0.0
2017-Nov-14 12:29N 29°34' W 090°43'0 0.0
2017-Nov-14 11:59N 29°34' W 090°43'0 0.0
2017-Nov-14 11:29N 29°34' W 090°43'0 0.0
2017-Nov-14 10:59N 29°34' W 090°43'0 0.0
2017-Nov-14 10:29N 29°34' W 090°43'0 0.0
2017-Nov-14 09:59N 29°34' W 090°43'0 0.0
2017-Nov-14 09:29N 29°34' W 090°43'0 0.0
2017-Nov-14 08:59N 29°34' W 090°43'0 0.0
2017-Nov-14 08:29N 29°34' W 090°43'0 0.0
2017-Nov-14 07:59N 29°34' W 090°43'0 0.0
2017-Nov-14 07:29N 29°34' W 090°43'0 0.0
2017-Nov-14 06:59N 29°34' W 090°43'0 0.0
2017-Nov-14 06:29N 29°34' W 090°43'0 0.0
2017-Nov-14 05:59N 29°34' W 090°43'0 0.0
2017-Nov-14 05:29N 29°34' W 090°43'0 0.0
2017-Nov-14 04:59N 29°34' W 090°43'0 0.0
2017-Nov-14 04:29N 29°34' W 090°43'0 0.0
2017-Nov-14 03:59N 29°34' W 090°43'0 0.0
2017-Nov-14 03:29N 29°34' W 090°43'0 0.0
2017-Nov-14 02:59N 29°34' W 090°43'0 0.0
2017-Nov-14 02:29N 29°34' W 090°43'0 0.0
2017-Nov-14 01:59N 29°34' W 090°43'0 0.0
2017-Nov-14 01:29N 29°34' W 090°43'0 0.0
2017-Nov-14 00:59N 29°34' W 090°43'0 0.0
2017-Nov-14 00:29N 29°34' W 090°43'0 0.0
2017-Nov-13 23:59N 29°34' W 090°43'0 0.0
2017-Nov-13 23:29N 29°34' W 090°43'0 0.0
2017-Nov-13 22:59N 29°34' W 090°43'0 0.0
2017-Nov-13 22:29N 29°34' W 090°43'0 0.0
2017-Nov-13 21:59N 29°34' W 090°43'0 0.0
2017-Nov-13 01:59N 29°34' W 090°43'0 0.0
2017-Nov-13 01:29N 29°34' W 090°43'0 0.0
2017-Nov-13 00:59N 29°34' W 090°43'0 0.0
2017-Nov-13 00:29N 29°34' W 090°43'0 0.0
2017-Nov-12 23:59N 29°34' W 090°43'0 0.0
2017-Nov-12 23:29N 29°34' W 090°43'0 0.0
2017-Nov-12 22:59N 29°34' W 090°43'0 0.0
2017-Nov-12 22:29N 29°34' W 090°43'0 0.0
2017-Nov-12 21:59N 29°34' W 090°43'0 0.0
2017-Nov-12 21:29N 29°34' W 090°43'0 0.0
2017-Nov-12 20:59N 29°34' W 090°43'0 0.0
2017-Nov-12 20:29N 29°34' W 090°43'0 0.0
2017-Nov-12 19:59N 29°34' W 090°43'0 0.0
2017-Nov-12 19:29N 29°34' W 090°43'0 0.0
2017-Nov-12 18:59N 29°34' W 090°43'0 0.0
2017-Nov-12 18:29N 29°34' W 090°43'0 0.0
2017-Nov-12 17:59N 29°34' W 090°43'0 0.0
2017-Nov-12 17:29N 29°34' W 090°43'0 0.0
2017-Nov-12 16:59N 29°34' W 090°43'0 0.0
2017-Nov-12 16:29N 29°34' W 090°43'0 0.0
2017-Nov-12 15:59N 29°34' W 090°43'0 0.0
2017-Nov-12 15:29N 29°34' W 090°43'0 0.0
2017-Nov-12 14:59N 29°34' W 090°43'0 0.0
2017-Nov-12 14:29N 29°34' W 090°43'0 0.0
2017-Nov-12 13:59N 29°34' W 090°43'0 0.0
2017-Nov-12 13:29N 29°34' W 090°43'0 0.0
2017-Nov-12 12:59N 29°34' W 090°43'0 0.0
2017-Nov-12 12:29N 29°34' W 090°43'0 0.0
2017-Nov-12 11:59N 29°34' W 090°43'0 0.0
2017-Nov-12 11:29N 29°34' W 090°43'0 0.0
2017-Nov-12 10:59N 29°34' W 090°43'0 0.0
2017-Nov-12 10:29N 29°34' W 090°43'0 0.0
2017-Nov-12 09:59N 29°34' W 090°43'0 0.0
2017-Nov-12 09:29N 29°34' W 090°43'0 0.0
2017-Nov-12 08:59N 29°34' W 090°43'0 0.0
2017-Nov-12 08:29N 29°34' W 090°43'0 0.0
2017-Nov-12 07:59N 29°34' W 090°43'0 0.0
2017-Nov-12 07:29N 29°34' W 090°43'0 0.0
2017-Nov-12 06:59N 29°34' W 090°43'0 0.0
2017-Nov-12 06:29N 29°34' W 090°43'0 0.0
2017-Nov-12 05:58N 29°34' W 090°43'0 0.0
2017-Nov-12 05:29N 29°34' W 090°43'0 0.0
2017-Nov-12 04:59N 29°34' W 090°43'0 0.0
2017-Nov-12 04:29N 29°34' W 090°43'0 0.0
2017-Nov-12 03:59N 29°34' W 090°43'0 0.0
2017-Nov-12 03:29N 29°34' W 090°43'0 0.0
2017-Nov-12 02:59N 29°34' W 090°43'0 0.0
2017-Nov-12 02:29N 29°34' W 090°43'0 0.0
2017-Nov-12 01:59N 29°34' W 090°43'0 0.0
2017-Nov-12 01:29N 29°34' W 090°43'0 0.0
2017-Nov-12 00:58N 29°34' W 090°43'0 0.0
2017-Nov-12 00:29N 29°34' W 090°43'0 0.0
2017-Nov-11 23:58N 29°34' W 090°43'0 0.0
2017-Nov-11 23:29N 29°34' W 090°43'0 0.0
2017-Nov-11 22:58N 29°34' W 090°43'0 0.0
2017-Nov-11 22:29N 29°34' W 090°43'0 0.0
2017-Nov-11 21:59N 29°34' W 090°43'0 0.0
2017-Nov-11 21:29N 29°34' W 090°43'0 0.0
2017-Nov-11 20:59N 29°34' W 090°43'0 0.0
2017-Nov-11 20:29N 29°34' W 090°43'0 0.0
2017-Nov-11 19:59N 29°34' W 090°43'0 0.0
2017-Nov-11 19:29N 29°34' W 090°43'0 0.0
2017-Nov-11 18:59N 29°34' W 090°43'0 0.0
2017-Nov-11 18:29N 29°34' W 090°43'0 0.0
2017-Nov-11 17:58N 29°34' W 090°43'0 0.0
2017-Nov-11 17:28N 29°34' W 090°43'0 0.0
2017-Nov-11 16:58N 29°34' W 090°43'0 0.0
2017-Nov-11 16:23N 29°34' W 090°43'0 0.0
2017-Nov-11 15:59N 29°34' W 090°43'0 0.0
2017-Nov-11 15:28N 29°34' W 090°43'0 0.0
2017-Nov-11 14:58N 29°34' W 090°43'0 0.0
2017-Nov-11 14:28N 29°34' W 090°43'0 0.0
2017-Nov-11 13:58N 29°34' W 090°43'0 0.0
2017-Nov-11 13:29N 29°34' W 090°43'0 0.0
2017-Nov-11 12:58N 29°34' W 090°43'0 0.0
2017-Nov-11 12:28N 29°34' W 090°43'0 0.0
2017-Nov-11 11:58N 29°34' W 090°43'0 0.0
2017-Nov-11 11:28N 29°34' W 090°43'0 0.0
2017-Nov-11 10:58N 29°34' W 090°43'0 0.0
2017-Nov-11 10:28N 29°34' W 090°43'0 0.0
2017-Nov-11 09:58N 29°34' W 090°43'0 0.0
2017-Nov-11 09:28N 29°34' W 090°43'0 0.0
2017-Nov-11 08:59N 29°34' W 090°43'0 0.0
2017-Nov-11 08:28N 29°34' W 090°43'0 0.0
2017-Nov-11 07:58N 29°34' W 090°43'0 0.0
2017-Nov-11 07:28N 29°34' W 090°43'0 0.0
2017-Nov-11 06:58N 29°34' W 090°43'0 0.0
2017-Nov-11 06:28N 29°34' W 090°43'0 0.0
2017-Nov-11 05:58N 29°34' W 090°43'0 0.0
2017-Nov-11 05:28N 29°34' W 090°43'0 0.0
2017-Nov-11 04:58N 29°34' W 090°43'0 0.0
2017-Nov-11 04:28N 29°34' W 090°43'0 0.0
2017-Nov-11 03:58N 29°34' W 090°43'0 0.0
2017-Nov-11 03:28N 29°34' W 090°43'0 0.0
2017-Nov-11 02:58N 29°34' W 090°43'0 0.0
2017-Nov-11 02:28N 29°34' W 090°43'0 0.0
2017-Nov-11 01:58N 29°34' W 090°43'0 0.0
2017-Nov-11 01:28N 29°34' W 090°43'0 0.0
2017-Nov-11 00:58N 29°34' W 090°43'0 0.0
2017-Nov-11 00:28N 29°34' W 090°43'0 0.0
2017-Nov-10 23:58N 29°34' W 090°43'0 0.0
2017-Nov-10 23:28N 29°34' W 090°43'0 0.0
2017-Nov-10 22:58N 29°34' W 090°43'0 0.0
2017-Nov-10 22:28N 29°34' W 090°43'0 0.0
2017-Nov-10 21:58N 29°34' W 090°43'0 0.0
2017-Nov-10 21:28N 29°34' W 090°43'0 0.0
2017-Nov-10 20:58N 29°34' W 090°43'0 0.0
2017-Nov-10 20:28N 29°34' W 090°43'0 0.0
2017-Nov-10 19:58N 29°34' W 090°43'0 0.0
2017-Nov-10 19:28N 29°34' W 090°43'0 0.0
2017-Nov-10 18:58N 29°34' W 090°43'0 0.0
2017-Nov-10 18:28N 29°34' W 090°43'0 0.0
2017-Nov-10 17:58N 29°34' W 090°43'0 0.0
2017-Nov-10 17:28N 29°34' W 090°43'0 0.0
2017-Nov-10 16:58N 29°34' W 090°43'0 0.0
2017-Nov-10 16:28N 29°34' W 090°43'0 0.0
2017-Nov-10 15:58N 29°34' W 090°43'0 0.0
2017-Nov-10 15:28N 29°34' W 090°43'0 0.0
2017-Nov-10 14:58N 29°34' W 090°43'0 0.0
2017-Nov-10 14:28N 29°34' W 090°43'0 0.0
2017-Nov-10 13:58N 29°34' W 090°43'0 0.0
2017-Nov-10 13:28N 29°34' W 090°43'0 0.0
2017-Nov-10 12:58N 29°34' W 090°43'0 0.0
2017-Nov-10 12:28N 29°34' W 090°43'0 0.0
2017-Nov-10 10:25N 29°34' W 090°43'0 0.0
2017-Nov-10 09:58N 29°34' W 090°43'0 0.0
2017-Nov-10 09:28N 29°34' W 090°43'0 0.0
2017-Nov-10 08:58N 29°34' W 090°43'0 0.0
2017-Nov-10 08:28N 29°34' W 090°43'0 0.0
2017-Nov-10 07:55N 29°34' W 090°43'0 0.0
2017-Nov-10 07:28N 29°34' W 090°43'0 0.0
2017-Nov-10 06:58N 29°34' W 090°43'0 0.0
2017-Nov-10 06:28N 29°34' W 090°43'0 0.0
2017-Nov-10 05:58N 29°34' W 090°43'0 0.0
2017-Nov-10 05:28N 29°34' W 090°43'0 0.0
2017-Nov-10 04:58N 29°34' W 090°43'0 0.0
2017-Nov-10 04:28N 29°34' W 090°43'0 0.0
2017-Nov-10 03:58N 29°34' W 090°43'0 0.0
2017-Nov-10 03:28N 29°34' W 090°43'0 0.0
2017-Nov-10 02:58N 29°34' W 090°43'0 0.0
2017-Nov-10 02:28N 29°34' W 090°43'0 0.0
2017-Nov-10 01:58N 29°34' W 090°43'0 0.0
2017-Nov-10 01:28N 29°34' W 090°43'0 0.0
2017-Nov-10 00:58N 29°34' W 090°43'  
Track history (hours):
 
Tides and Currents Weather Stations Pressure Air Temp Water Temp Dewpoint Dewpoint Depression Visibility Wind Speed Wind Dir Waves Ship Positions

Xavier Cenac

Owner: Cenac Marine Services LLC, Houma, LA. More information available from US FCC via Universal Licensing System and Coast Guard Vessel Documentation Center.

Last reported at 2017-Nov-20 00:30 UTC. Time now 2017-Nov-21 11:39 UTC.
Position N 29°47' W 092°09'.

Length 23 m; draft 9.6 m.

Type: Tug. MMSI: 367722660.

Date/timePositionNaut miles runAvg speedWind from/ knotsBaromVisibWave heightAir tempDewpointWater temp
2017-Nov-20 00:30N 29°47' W 092°09'2 4.6
2017-Nov-20 00:00N 29°47' W 092°12'2 4.8
2017-Nov-19 23:30N 29°48' W 092°14'1 1.1
2017-Nov-19 22:59N 29°48' W 092°15'0 0.0
2017-Nov-19 22:29N 29°48' W 092°15'0 0.2
2017-Nov-19 21:59N 29°48' W 092°15'1 3.1
2017-Nov-19 21:31N 29°49' W 092°17'3 5.0
2017-Nov-19 20:59N 29°50' W 092°19'39 5.0
2017-Nov-19 13:06N 29°56' W 093°04'1 4.2
2017-Nov-19 12:55N 29°56' W 093°05'2 4.7
2017-Nov-19 12:30N 29°56' W 093°07'2 4.7
2017-Nov-19 12:00N 29°56' W 093°10'2 3.8
2017-Nov-19 11:30N 29°58' W 093°11'2 3.3
2017-Nov-19 11:00N 29°59' W 093°12'2 3.5
2017-Nov-19 10:31N 30°00' W 093°14'2 3.4
2017-Nov-19 10:00N 30°02' W 093°15'2 3.2
2017-Nov-19 09:30N 30°03' W 093°16'2 4.4
2017-Nov-19 09:00N 30°05' W 093°17'1 1.2
2017-Nov-19 08:28N 30°05' W 093°18'1 1.9
2017-Nov-19 08:00N 30°06' W 093°18'0 0.3
2017-Nov-19 07:30N 30°06' W 093°19'0 0.0
2017-Nov-19 07:00N 30°06' W 093°19'0 0.0
2017-Nov-19 06:30N 30°06' W 093°19'0 0.0
2017-Nov-19 06:00N 30°06' W 093°19'0 0.0
2017-Nov-19 05:30N 30°06' W 093°19'0 0.0
2017-Nov-19 05:00N 30°06' W 093°19'0 0.0
2017-Nov-19 04:30N 30°06' W 093°19'0 0.0
2017-Nov-19 04:00N 30°06' W 093°19'0 0.0
2017-Nov-19 03:30N 30°06' W 093°19'0 0.0
2017-Nov-19 03:00N 30°06' W 093°19'0 0.0
2017-Nov-19 02:30N 30°06' W 093°19'0 0.0
2017-Nov-19 02:00N 30°06' W 093°19'0 0.0
2017-Nov-19 01:30N 30°06' W 093°19'0 0.0
2017-Nov-19 01:00N 30°06' W 093°19'0 0.0
2017-Nov-19 00:30N 30°06' W 093°19'0 0.1
2017-Nov-19 00:00N 30°06' W 093°19'0 0.0
2017-Nov-18 23:30N 30°06' W 093°19'1 2.2
2017-Nov-18 23:00N 30°05' W 093°20'2 4.3
2017-Nov-18 22:30N 30°04' W 093°21'2 4.3
2017-Nov-18 22:00N 30°04' W 093°24'3 5.8
2017-Nov-18 21:30N 30°04' W 093°27'3 5.9
2017-Nov-18 21:00N 30°04' W 093°30'11 0.3
2017-Nov-17 04:11N 30°03' W 093°43'1 6.0
2017-Nov-17 04:00N 30°04' W 093°42'3 7.0
2017-Nov-17 03:30N 30°04' W 093°38'4 7.3
2017-Nov-17 03:00N 30°04' W 093°33'4 7.2
2017-Nov-17 02:31N 30°04' W 093°29'4 7.3
2017-Nov-17 02:00N 30°04' W 093°25'3 6.4
2017-Nov-17 01:30N 30°04' W 093°21'3 6.6
2017-Nov-17 01:00N 30°06' W 093°19'2 3.0
2017-Nov-17 00:29N 30°05' W 093°17'1 1.9
2017-Nov-17 00:00N 30°05' W 093°17'2 4.0
2017-Nov-16 23:30N 30°03' W 093°16'3 6.1
2017-Nov-16 23:00N 30°00' W 093°14'3 6.6
2017-Nov-16 22:30N 29°58' W 093°11'4 6.0
2017-Nov-16 21:53N 29°56' W 093°07'40 5.6
2017-Nov-16 14:45N 29°51' W 092°22'2 6.5
2017-Nov-16 14:30N 29°51' W 092°20'3 5.7
2017-Nov-16 14:00N 29°49' W 092°17'3 6.9
2017-Nov-16 13:30N 29°48' W 092°14'1 2.3
2017-Nov-16 12:58N 29°47' W 092°12'0 0.8
2017-Nov-16 12:30N 29°47' W 092°12'1 2.0
2017-Nov-16 11:58N 29°47' W 092°11'0 0.0
2017-Nov-16 11:28N 29°47' W 092°11'0 0.0
2017-Nov-16 10:58N 29°47' W 092°11'0 0.0
2017-Nov-16 10:28N 29°47' W 092°11'0 0.0
2017-Nov-16 09:58N 29°47' W 092°11'0 0.0
2017-Nov-16 09:28N 29°47' W 092°11'0 0.0
2017-Nov-16 08:58N 29°47' W 092°11'0 0.0
2017-Nov-16 08:28N 29°47' W 092°11'1 3.2
2017-Nov-16 08:00N 29°47' W 092°09'2 4.1
2017-Nov-16 07:30N 29°48' W 092°07'3 5.2
2017-Nov-16 06:56N 29°49' W 092°04'0 0.2
2017-Nov-16 06:30N 29°49' W 092°04'0 0.6
2017-Nov-16 06:00N 29°48' W 092°04'3 5.4
2017-Nov-16 05:30N 29°49' W 092°01'3 6.8
2017-Nov-16 05:00N 29°50' W 091°57'56 5.6
2017-Nov-15 19:05N 29°34' W 090°56'1 7.5
2017-Nov-15 18:56N 29°33' W 090°55'3 7.1
2017-Nov-15 18:29N 29°32' W 090°51'3 7.3
2017-Nov-15 18:01N 29°32' W 090°47'3 5.9
2017-Nov-15 17:31N 29°34' W 090°44'1 2.7
2017-Nov-15 17:00N 29°34' W 090°43'0 0.0
2017-Nov-15 16:28N 29°34' W 090°43'0 1.0
2017-Nov-15 15:59N 29°34' W 090°43'0 0.0
2017-Nov-15 15:29N 29°34' W 090°43'0 0.0
2017-Nov-15 14:59N 29°34' W 090°43'0 0.0
2017-Nov-15 14:29N 29°34' W 090°43'0 0.0
2017-Nov-15 13:59N 29°34' W 090°43'0 0.0
2017-Nov-15 13:29N 29°34' W 090°43'0 0.0
2017-Nov-15 12:59N 29°34' W 090°43'0 0.0
2017-Nov-15 12:29N 29°34' W 090°43'0 0.0
2017-Nov-15 11:59N 29°34' W 090°43'0 0.0
2017-Nov-15 11:29N 29°34' W 090°43'0 0.0
2017-Nov-15 10:59N 29°34' W 090°43'0 0.0
2017-Nov-15 10:29N 29°34' W 090°43'0 0.0
2017-Nov-15 09:59N 29°34' W 090°43'0 0.0
2017-Nov-15 09:29N 29°34' W 090°43'0 0.0
2017-Nov-15 08:59N 29°34' W 090°43'0 0.0
2017-Nov-15 08:29N 29°34' W 090°43'0 0.0
2017-Nov-15 07:59N 29°34' W 090°43'0 0.0
2017-Nov-15 07:29N 29°34' W 090°43'0 0.0
2017-Nov-15 06:59N 29°34' W 090°43'0 0.0
2017-Nov-15 06:29N 29°34' W 090°43'0 0.0
2017-Nov-15 05:59N 29°34' W 090°43'0 0.0
2017-Nov-15 05:29N 29°34' W 090°43'0 0.0
2017-Nov-15 04:59N 29°34' W 090°43'0 0.0
2017-Nov-15 04:29N 29°34' W 090°43'0 0.0
2017-Nov-15 03:59N 29°34' W 090°43'0 0.0
2017-Nov-15 03:29N 29°34' W 090°43'0 0.0
2017-Nov-15 02:59N 29°34' W 090°43'0 0.0
2017-Nov-15 02:29N 29°34' W 090°43'0 0.0
2017-Nov-15 01:59N 29°34' W 090°43'0 0.0
2017-Nov-15 01:29N 29°34' W 090°43'0 0.0
2017-Nov-15 00:59N 29°34' W 090°43'0 0.0
2017-Nov-15 00:29N 29°34' W 090°43'0 0.0
2017-Nov-14 23:59N 29°34' W 090°43'0 0.0
2017-Nov-14 23:29N 29°34' W 090°43'0 0.0
2017-Nov-14 22:59N 29°34' W 090°43'0 0.0
2017-Nov-14 22:29N 29°34' W 090°43'0 0.0
2017-Nov-14 21:59N 29°34' W 090°43'0 0.0
2017-Nov-14 21:29N 29°34' W 090°43'0 0.0
2017-Nov-14 20:59N 29°34' W 090°43'0 0.0
2017-Nov-14 20:29N 29°34' W 090°43'0 0.0
2017-Nov-14 19:59N 29°34' W 090°43'0 0.0
2017-Nov-14 19:29N 29°34' W 090°43'0 0.0
2017-Nov-14 18:59N 29°34' W 090°43'0 0.0
2017-Nov-14 18:29N 29°34' W 090°43'0 0.0
2017-Nov-14 17:59N 29°34' W 090°43'0 0.0
2017-Nov-14 17:29N 29°34' W 090°43'0 0.0
2017-Nov-14 16:59N 29°34' W 090°43'0 0.0
2017-Nov-14 16:29N 29°34' W 090°43'0 0.0
2017-Nov-14 15:59N 29°34' W 090°43'0 0.0
2017-Nov-14 15:29N 29°34' W 090°43'0 0.0
2017-Nov-14 14:59N 29°34' W 090°43'0 0.0
2017-Nov-14 14:29N 29°34' W 090°43'0 0.0
2017-Nov-14 13:59N 29°34' W 090°43'0 0.0
2017-Nov-14 13:29N 29°34' W 090°43'0 0.0
2017-Nov-14 12:59N 29°34' W 090°43'0 0.0
2017-Nov-14 12:29N 29°34' W 090°43'0 0.0
2017-Nov-14 11:59N 29°34' W 090°43'0 0.0
2017-Nov-14 11:29N 29°34' W 090°43'0 0.0
2017-Nov-14 10:59N 29°34' W 090°43'0 0.0
2017-Nov-14 10:29N 29°34' W 090°43'0 0.0
2017-Nov-14 09:59N 29°34' W 090°43'0 0.0
2017-Nov-14 09:29N 29°34' W 090°43'0 0.0
2017-Nov-14 08:59N 29°34' W 090°43'0 0.0
2017-Nov-14 08:29N 29°34' W 090°43'0 0.0
2017-Nov-14 07:59N 29°34' W 090°43'0 0.0
2017-Nov-14 07:29N 29°34' W 090°43'0 0.0
2017-Nov-14 06:59N 29°34' W 090°43'0 0.0
2017-Nov-14 06:29N 29°34' W 090°43'0 0.0
2017-Nov-14 05:59N 29°34' W 090°43'0 0.0
2017-Nov-14 05:29N 29°34' W 090°43'0 0.0
2017-Nov-14 04:59N 29°34' W 090°43'0 0.0
2017-Nov-14 04:29N 29°34' W 090°43'0 0.0
2017-Nov-14 03:59N 29°34' W 090°43'0 0.0
2017-Nov-14 03:29N 29°34' W 090°43'0 0.0
2017-Nov-14 02:59N 29°34' W 090°43'0 0.0
2017-Nov-14 02:29N 29°34' W 090°43'0 0.0
2017-Nov-14 01:59N 29°34' W 090°43'0 0.0
2017-Nov-14 01:29N 29°34' W 090°43'0 0.0
2017-Nov-14 00:59N 29°34' W 090°43'0 0.0
2017-Nov-14 00:29N 29°34' W 090°43'0 0.0
2017-Nov-13 23:59N 29°34' W 090°43'0 0.0
2017-Nov-13 23:29N 29°34' W 090°43'0 0.0
2017-Nov-13 22:59N 29°34' W 090°43'0 0.0
2017-Nov-13 22:29N 29°34' W 090°43'0 0.0
2017-Nov-13 21:59N 29°34' W 090°43'0 0.0
2017-Nov-13 01:59N 29°34' W 090°43'0 0.0
2017-Nov-13 01:29N 29°34' W 090°43'0 0.0
2017-Nov-13 00:59N 29°34' W 090°43'0 0.0
2017-Nov-13 00:29N 29°34' W 090°43'0 0.0
2017-Nov-12 23:59N 29°34' W 090°43'0 0.0
2017-Nov-12 23:29N 29°34' W 090°43'0 0.0
2017-Nov-12 22:59N 29°34' W 090°43'0 0.0
2017-Nov-12 22:29N 29°34' W 090°43'0 0.0
2017-Nov-12 21:59N 29°34' W 090°43'0 0.0
2017-Nov-12 21:29N 29°34' W 090°43'0 0.0
2017-Nov-12 20:59N 29°34' W 090°43'0 0.0
2017-Nov-12 20:29N 29°34' W 090°43'0 0.0
2017-Nov-12 19:59N 29°34' W 090°43'0 0.0
2017-Nov-12 19:29N 29°34' W 090°43'0 0.0
2017-Nov-12 18:59N 29°34' W 090°43'0 0.0
2017-Nov-12 18:29N 29°34' W 090°43'0 0.0
2017-Nov-12 17:59N 29°34' W 090°43'0 0.0
2017-Nov-12 17:29N 29°34' W 090°43'0 0.0
2017-Nov-12 16:59N 29°34' W 090°43'0 0.0
2017-Nov-12 16:29N 29°34' W 090°43'0 0.0
2017-Nov-12 15:59N 29°34' W 090°43'0 0.0
2017-Nov-12 15:29N 29°34' W 090°43'0 0.0
2017-Nov-12 14:59N 29°34' W 090°43'0 0.0
2017-Nov-12 14:29N 29°34' W 090°43'0 0.0
2017-Nov-12 13:59N 29°34' W 090°43'0 0.0
2017-Nov-12 13:29N 29°34' W 090°43'0 0.0
2017-Nov-12 12:59N 29°34' W 090°43'0 0.0
2017-Nov-12 12:29N 29°34' W 090°43'0 0.0
2017-Nov-12 11:59N 29°34' W 090°43'0 0.0
2017-Nov-12 11:29N 29°34' W 090°43'0 0.0
2017-Nov-12 10:59N 29°34' W 090°43'0 0.0
2017-Nov-12 10:29N 29°34' W 090°43'0 0.0
2017-Nov-12 09:59N 29°34' W 090°43'0 0.0
2017-Nov-12 09:29N 29°34' W 090°43'0 0.0
2017-Nov-12 08:59N 29°34' W 090°43'0 0.0
2017-Nov-12 08:29N 29°34' W 090°43'0 0.0
2017-Nov-12 07:59N 29°34' W 090°43'0 0.0
2017-Nov-12 07:29N 29°34' W 090°43'0 0.0
2017-Nov-12 06:59N 29°34' W 090°43'0 0.0
2017-Nov-12 06:29N 29°34' W 090°43'0 0.0
2017-Nov-12 05:58N 29°34' W 090°43'0 0.0
2017-Nov-12 05:29N 29°34' W 090°43'0 0.0
2017-Nov-12 04:59N 29°34' W 090°43'0 0.0
2017-Nov-12 04:29N 29°34' W 090°43'0 0.0
2017-Nov-12 03:59N 29°34' W 090°43'0 0.0
2017-Nov-12 03:29N 29°34' W 090°43'0 0.0
2017-Nov-12 02:59N 29°34' W 090°43'0 0.0
2017-Nov-12 02:29N 29°34' W 090°43'0 0.0
2017-Nov-12 01:59N 29°34' W 090°43'0 0.0
2017-Nov-12 01:29N 29°34' W 090°43'0 0.0
2017-Nov-12 00:58N 29°34' W 090°43'0 0.0
2017-Nov-12 00:29N 29°34' W 090°43'0 0.0
2017-Nov-11 23:58N 29°34' W 090°43'0 0.0
2017-Nov-11 23:29N 29°34' W 090°43'0 0.0
2017-Nov-11 22:58N 29°34' W 090°43'0 0.0
2017-Nov-11 22:29N 29°34' W 090°43'0 0.0
2017-Nov-11 21:59N 29°34' W 090°43'0 0.0
2017-Nov-11 21:29N 29°34' W 090°43'0 0.0
2017-Nov-11 20:59N 29°34' W 090°43'0 0.0
2017-Nov-11 20:29N 29°34' W 090°43'0 0.0
2017-Nov-11 19:59N 29°34' W 090°43'0 0.0
2017-Nov-11 19:29N 29°34' W 090°43'0 0.0
2017-Nov-11 18:59N 29°34' W 090°43'0 0.0
2017-Nov-11 18:29N 29°34' W 090°43'0 0.0
2017-Nov-11 17:58N 29°34' W 090°43'0 0.0
2017-Nov-11 17:28N 29°34' W 090°43'0 0.0
2017-Nov-11 16:58N 29°34' W 090°43'0 0.0
2017-Nov-11 16:23N 29°34' W 090°43'0 0.0
2017-Nov-11 15:59N 29°34' W 090°43'0 0.0
2017-Nov-11 15:28N 29°34' W 090°43'0 0.0
2017-Nov-11 14:58N 29°34' W 090°43'0 0.0
2017-Nov-11 14:28N 29°34' W 090°43'0 0.0
2017-Nov-11 13:58N 29°34' W 090°43'0 0.0
2017-Nov-11 13:29N 29°34' W 090°43'0 0.0
2017-Nov-11 12:58N 29°34' W 090°43'0 0.0
2017-Nov-11 12:28N 29°34' W 090°43'0 0.0
2017-Nov-11 11:58N 29°34' W 090°43'0 0.0
2017-Nov-11 11:28N 29°34' W 090°43'0 0.0
2017-Nov-11 10:58N 29°34' W 090°43'0 0.0
2017-Nov-11 10:28N 29°34' W 090°43'0 0.0
2017-Nov-11 09:58N 29°34' W 090°43'0 0.0
2017-Nov-11 09:28N 29°34' W 090°43'0 0.0
2017-Nov-11 08:59N 29°34' W 090°43'0 0.0
2017-Nov-11 08:28N 29°34' W 090°43'0 0.0
2017-Nov-11 07:58N 29°34' W 090°43'0 0.0
2017-Nov-11 07:28N 29°34' W 090°43'0 0.0
2017-Nov-11 06:58N 29°34' W 090°43'0 0.0
2017-Nov-11 06:28N 29°34' W 090°43'0 0.0
2017-Nov-11 05:58N 29°34' W 090°43'0 0.0
2017-Nov-11 05:28N 29°34' W 090°43'0 0.0
2017-Nov-11 04:58N 29°34' W 090°43'0 0.0
2017-Nov-11 04:28N 29°34' W 090°43'0 0.0
2017-Nov-11 03:58N 29°34' W 090°43'0 0.0
2017-Nov-11 03:28N 29°34' W 090°43'0 0.0
2017-Nov-11 02:58N 29°34' W 090°43'0 0.0
2017-Nov-11 02:28N 29°34' W 090°43'0 0.0
2017-Nov-11 01:58N 29°34' W 090°43'0 0.0
2017-Nov-11 01:28N 29°34' W 090°43'0 0.0
2017-Nov-11 00:58N 29°34' W 090°43'0 0.0
2017-Nov-11 00:28N 29°34' W 090°43'0 0.0
2017-Nov-10 23:58N 29°34' W 090°43'0 0.0
2017-Nov-10 23:28N 29°34' W 090°43'0 0.0
2017-Nov-10 22:58N 29°34' W 090°43'0 0.0
2017-Nov-10 22:28N 29°34' W 090°43'0 0.0
2017-Nov-10 21:58N 29°34' W 090°43'0 0.0
2017-Nov-10 21:28N 29°34' W 090°43'0 0.0
2017-Nov-10 20:58N 29°34' W 090°43'0 0.0
2017-Nov-10 20:28N 29°34' W 090°43'0 0.0
2017-Nov-10 19:58N 29°34' W 090°43'0 0.0
2017-Nov-10 19:28N 29°34' W 090°43'0 0.0
2017-Nov-10 18:58N 29°34' W 090°43'0 0.0
2017-Nov-10 18:28N 29°34' W 090°43'0 0.0
2017-Nov-10 17:58N 29°34' W 090°43'0 0.0
2017-Nov-10 17:28N 29°34' W 090°43'0 0.0
2017-Nov-10 16:58N 29°34' W 090°43'0 0.0
2017-Nov-10 16:28N 29°34' W 090°43'0 0.0
2017-Nov-10 15:58N 29°34' W 090°43'0 0.0
2017-Nov-10 15:28N 29°34' W 090°43'0 0.0
2017-Nov-10 14:58N 29°34' W 090°43'0 0.0
2017-Nov-10 14:28N 29°34' W 090°43'0 0.0
2017-Nov-10 13:58N 29°34' W 090°43'0 0.0
2017-Nov-10 13:28N 29°34' W 090°43'0 0.0
2017-Nov-10 12:58N 29°34' W 090°43'0 0.0
2017-Nov-10 12:28N 29°34' W 090°43'0 0.0
2017-Nov-10 10:25N 29°34' W 090°43'0 0.0
2017-Nov-10 09:58N 29°34' W 090°43'0 0.0
2017-Nov-10 09:28N 29°34' W 090°43'0 0.0
2017-Nov-10 08:58N 29°34' W 090°43'0 0.0
2017-Nov-10 08:28N 29°34' W 090°43'0 0.0
2017-Nov-10 07:55N 29°34' W 090°43'0 0.0
2017-Nov-10 07:28N 29°34' W 090°43'0 0.0
2017-Nov-10 06:58N 29°34' W 090°43'0 0.0
2017-Nov-10 06:28N 29°34' W 090°43'0 0.0
2017-Nov-10 05:58N 29°34' W 090°43'0 0.0
2017-Nov-10 05:28N 29°34' W 090°43'0 0.0
2017-Nov-10 04:58N 29°34' W 090°43'0 0.0
2017-Nov-10 04:28N 29°34' W 090°43'0 0.0
2017-Nov-10 03:58N 29°34' W 090°43'0 0.0
2017-Nov-10 03:28N 29°34' W 090°43'0 0.0
2017-Nov-10 02:58N 29°34' W 090°43'0 0.0
2017-Nov-10 02:28N 29°34' W 090°43'0 0.0
2017-Nov-10 01:58N 29°34' W 090°43'0 0.0
2017-Nov-10 01:28N 29°34' W 090°43'0 0.0
2017-Nov-10 00:58N 29°34' W 090°43'  

Dump ship's entire track history